Time;durP1;ratioP1;P1;durP2;ratioP2;P2;SDS_P1;SDS_P2;PMS_P1;PMS_P2;Temp;Humidity;BMP_temperature;BMP_pressure;BME280_temperature;BME280_humidity;BME280_pressure;Samples;Min_cycle;Max_cycle;Signal;HPM_P1;HPM_P2
2022/10/14 00:01:10;;;;;;;14.10;5.22;;;13.70;99.90;;;;;;4992382;28;20390;-68
2022/10/14 00:03:38;;;;;;;9.85;5.30;;;13.70;99.90;;;;;;4974940;28;20626;-70
2022/10/14 00:06:11;;;;;;;9.35;5.55;;;13.60;99.90;;;;;;5007620;28;20030;-69
2022/10/14 00:08:37;;;;;;;10.05;4.18;;;13.60;99.90;;;;;;4992716;28;20034;-69
2022/10/14 00:11:06;;;;;;;13.95;5.13;;;13.70;99.90;;;;;;4992270;28;20081;-69
2022/10/14 00:13:32;;;;;;;8.15;4.50;;;13.60;99.90;;;;;;4992216;28;20030;-69
2022/10/14 00:15:59;;;;;;;11.85;5.90;;;13.60;99.90;;;;;;5007488;28;20031;-69
2022/10/14 00:18:25;;;;;;;7.40;4.30;;;13.70;99.90;;;;;;5007485;28;20434;-69
2022/10/14 00:21:00;;;;;;;12.20;4.70;;;13.70;99.90;;;;;;5007215;28;20038;-69
2022/10/14 00:23:26;;;;;;;12.60;4.47;;;13.70;99.90;;;;;;5006772;28;20390;-69
2022/10/14 00:25:52;;;;;;;13.70;4.55;;;13.70;99.90;;;;;;4992272;28;20483;-69
2022/10/14 00:28:18;;;;;;;11.98;4.57;;;13.70;99.90;;;;;;4974697;28;20497;-69
2022/10/14 00:30:59;;;;;;;8.70;4.00;;;13.60;99.90;;;;;;5007197;28;20030;-69
2022/10/14 00:33:26;;;;;;;15.35;5.30;;;13.60;99.90;;;;;;5006974;28;20026;-69
2022/10/14 00:35:55;;;;;;;21.00;6.32;;;13.60;99.90;;;;;;5006982;28;20023;-69
2022/10/14 00:38:21;;;;;;;15.25;6.47;;;13.60;99.90;;;;;;4991874;28;20018;-69
2022/10/14 00:40:46;;;;;;;10.95;5.00;;;13.60;99.90;;;;;;4992095;28;20084;-69
2022/10/14 00:43:13;;;;;;;10.48;5.80;;;13.50;99.90;;;;;;4991810;28;20371;-69
2022/10/14 00:45:39;;;;;;;13.63;5.25;;;13.50;99.90;;;;;;4992113;28;20031;-69
2022/10/14 00:48:07;;;;;;;9.45;4.20;;;13.50;99.90;;;;;;4990653;28;20427;-69
2022/10/14 00:50:34;;;;;;;11.88;3.58;;;13.50;99.90;;;;;;5006523;28;20034;-68
2022/10/14 00:53:02;;;;;;;10.95;5.35;;;13.50;99.90;;;;;;5006572;28;20026;-69
2022/10/14 00:55:28;;;;;;;16.05;5.82;;;13.40;99.90;;;;;;5006603;28;20026;-68
2022/10/14 00:57:54;;;;;;;14.93;5.20;;;13.50;99.90;;;;;;5006774;28;20438;-69
2022/10/14 01:00:21;;;;;;;10.93;5.15;;;13.50;99.90;;;;;;4990382;28;20030;-69
2022/10/14 01:02:47;;;;;;;7.93;4.07;;;13.60;99.90;;;;;;4991207;28;20085;-68
2022/10/14 01:05:16;;;;;;;11.13;4.95;;;13.50;99.90;;;;;;4993071;28;20101;-69
2022/10/14 01:08:03;;;;;;;11.05;4.72;;;13.60;99.90;;;;;;5015276;28;20120;-69
2022/10/14 01:10:42;;;;;;;5.40;3.42;;;13.50;99.90;;;;;;5009473;28;20131;-69
2022/10/14 01:13:25;;;;;;;7.93;3.97;;;13.50;99.90;;;;;;4994138;28;20060;-69
2022/10/14 01:16:28;;;;;;;14.93;5.00;;;13.50;99.90;;;;;;4982930;28;20089;-69
2022/10/14 01:19:23;;;;;;;11.32;4.47;;;13.40;99.90;;;;;;4990710;28;20084;-69
2022/10/14 01:22:10;;;;;;;17.35;5.00;;;13.40;99.90;;;;;;5004201;28;20214;-68
2022/10/14 01:24:47;;;;;;;13.98;5.88;;;13.40;99.90;;;;;;5018427;28;20018;-69
2022/10/14 01:27:41;;;;;;;16.85;6.47;;;13.40;99.90;;;;;;4989398;28;20495;-69
2022/10/14 01:30:21;;;;;;;13.52;5.40;;;13.40;99.90;;;;;;4994053;28;20049;-69
2022/10/14 01:33:07;;;;;;;14.18;5.45;;;13.30;99.90;;;;;;4993800;28;20038;-69
2022/10/14 01:36:06;;;;;;;12.20;5.20;;;13.40;99.90;;;;;;4994150;28;20038;-69
2022/10/14 01:38:46;;;;;;;14.07;5.57;;;13.40;99.90;;;;;;4995224;28;20088;-69
2022/10/14 01:41:34;;;;;;;12.65;4.80;;;13.30;99.90;;;;;;4989086;28;20058;-69
2022/10/14 01:44:07;;;;;;;8.27;4.30;;;13.30;99.90;;;;;;5009480;28;20080;-69
2022/10/14 01:46:36;;;;;;;7.32;3.92;;;13.30;99.90;;;;;;4993394;28;20113;-69
2022/10/14 01:49:09;;;;;;;8.75;3.28;;;13.30;99.90;;;;;;5009952;28;20034;-69
2022/10/14 01:51:50;;;;;;;9.07;4.50;;;13.30;99.90;;;;;;4993931;28;20034;-69
2022/10/14 01:54:26;;;;;;;8.73;3.92;;;13.30;99.90;;;;;;4994679;28;20084;-69
2022/10/14 01:56:54;;;;;;;7.40;4.43;;;13.30;99.90;;;;;;4993872;28;20539;-69
2022/10/14 01:59:21;;;;;;;12.63;4.45;;;13.30;99.90;;;;;;4993771;28;20034;-69
2022/10/14 02:01:47;;;;;;;12.30;5.22;;;13.30;99.90;;;;;;4993786;28;20027;-69
2022/10/14 02:04:19;;;;;;;10.77;5.32;;;13.30;99.90;;;;;;4994316;28;20038;-69
2022/10/14 02:07:34;;;;;;;10.38;4.68;;;13.30;99.90;;;;;;4993701;28;20165;-69
2022/10/14 02:10:51;;;;;;;9.45;5.15;;;13.30;99.90;;;;;;4977192;28;20065;-69
2022/10/14 02:14:02;;;;;;;12.82;5.07;;;13.20;99.90;;;;;;4981982;28;20046;-69
2022/10/14 02:17:00;;;;;;;16.92;5.32;;;13.30;99.90;;;;;;5009738;23;20021;-75
2022/10/14 02:19:48;;;;;;;8.68;4.28;;;13.20;99.90;;;;;;4996948;28;20068;-75
2022/10/14 02:22:44;;;;;;;14.57;4.88;;;13.20;99.90;;;;;;4996433;28;20029;-75
2022/10/14 02:25:29;;;;;;;8.57;3.75;;;13.30;99.90;;;;;;4996928;28;20145;-75
2022/10/14 02:27:57;;;;;;;7.95;4.20;;;13.20;99.90;;;;;;4981078;28;20034;-75
2022/10/14 02:30:25;;;;;;;7.38;3.22;;;13.20;99.90;;;;;;4976977;28;20040;-75
2022/10/14 02:32:52;;;;;;;6.95;3.78;;;13.20;99.90;;;;;;4976665;28;20022;-75
2022/10/14 02:35:20;;;;;;;9.77;4.30;;;13.20;99.90;;;;;;4994335;28;20026;-75
2022/10/14 02:37:48;;;;;;;7.88;4.72;;;13.20;99.90;;;;;;4976590;28;20037;-74
2022/10/14 02:40:24;;;;;;;8.45;4.63;;;13.10;99.90;;;;;;4976296;28;20027;-74
2022/10/14 02:42:49;;;;;;;13.20;5.32;;;13.10;99.90;;;;;;4976531;28;20045;-75
2022/10/14 02:45:16;;;;;;;9.32;4.88;;;13.10;99.90;;;;;;4976736;28;20038;-74
2022/10/14 02:47:41;;;;;;;8.13;4.85;;;13.10;99.90;;;;;;4976906;28;20034;-75
2022/10/14 02:50:08;;;;;;;12.32;5.55;;;13.10;99.90;;;;;;4993980;28;20040;-74
2022/10/14 02:52:34;;;;;;;14.68;5.30;;;13.10;99.90;;;;;;4993460;28;20029;-74
2022/10/14 02:54:59;;;;;;;7.72;4.18;;;13.10;99.90;;;;;;4993716;28;20034;-75
2022/10/14 02:57:25;;;;;;;10.93;4.82;;;13.10;99.90;;;;;;4993818;28;20037;-74
2022/10/14 02:59:51;;;;;;;9.57;4.18;;;13.10;99.90;;;;;;4976065;28;20035;-74
2022/10/14 03:02:16;;;;;;;12.85;5.35;;;13.10;99.90;;;;;;4993123;28;20027;-75
2022/10/14 03:04:42;;;;;;;12.15;5.40;;;13.10;99.90;;;;;;4992417;28;20042;-75
2022/10/14 03:07:08;;;;;;;7.97;4.57;;;13.10;99.90;;;;;;4993551;28;20042;-75
2022/10/14 03:09:33;;;;;;;8.68;4.47;;;13.10;99.90;;;;;;4976080;28;20387;-75
2022/10/14 03:11:59;;;;;;;11.98;5.53;;;13.10;99.90;;;;;;4993532;28;20022;-74
2022/10/14 03:14:25;;;;;;;15.77;4.93;;;13.10;99.90;;;;;;4992844;28;20026;-74
2022/10/14 03:16:51;;;;;;;10.95;4.60;;;13.10;99.90;;;;;;5002179;28;20049;-74
2022/10/14 03:19:16;;;;;;;17.52;6.45;;;13.10;99.90;;;;;;4975904;28;20461;-74
2022/10/14 03:21:42;;;;;;;13.30;5.85;;;13.10;99.90;;;;;;4993235;28;20040;-75
2022/10/14 03:24:08;;;;;;;9.27;5.63;;;13.10;99.90;;;;;;4992991;28;20118;-74
2022/10/14 03:26:34;;;;;;;17.38;5.85;;;13.10;99.90;;;;;;4993067;28;20035;-74
2022/10/14 03:29:00;;;;;;;21.05;5.35;;;13.00;99.90;;;;;;4978809;28;20677;-74
2022/10/14 03:31:26;;;;;;;10.10;5.45;;;13.00;99.90;;;;;;4959661;28;20041;-75
2022/10/14 03:33:52;;;;;;;10.05;4.82;;;13.00;99.90;;;;;;4992651;28;20046;-75
2022/10/14 03:36:17;;;;;;;11.18;5.22;;;13.00;99.90;;;;;;4993030;28;20041;-75
2022/10/14 03:38:43;;;;;;;10.27;5.80;;;13.00;99.90;;;;;;4975316;28;20030;-74
2022/10/14 03:41:08;;;;;;;12.15;6.43;;;13.00;99.90;;;;;;4992735;28;20041;-75
2022/10/14 03:43:34;;;;;;;11.20;5.13;;;13.00;99.90;;;;;;4975305;28;20101;-74
2022/10/14 03:46:00;;;;;;;15.88;6.00;;;13.00;99.90;;;;;;4992854;28;20109;-74
2022/10/14 03:48:25;;;;;;;11.82;5.63;;;13.00;99.90;;;;;;4992739;28;20470;-75
2022/10/14 03:50:51;;;;;;;15.90;5.63;;;13.00;99.90;;;;;;4989353;28;20061;-74
2022/10/14 03:53:17;;;;;;;10.65;5.03;;;13.00;99.90;;;;;;4990723;28;20026;-74
2022/10/14 03:55:42;;;;;;;10.65;5.72;;;13.10;99.90;;;;;;4992421;28;20065;-74
2022/10/14 03:58:10;;;;;;;15.10;6.70;;;13.00;99.90;;;;;;4924872;28;20085;-73
2022/10/14 04:00:36;;;;;;;18.15;5.75;;;13.00;99.90;;;;;;4940480;28;20041;-74
2022/10/14 04:03:02;;;;;;;15.98;5.55;;;13.10;99.90;;;;;;4988516;28;20038;-74
2022/10/14 04:05:32;;;;;;;16.52;6.05;;;13.10;99.90;;;;;;4990956;28;20034;-74
2022/10/14 04:08:02;;;;;;;17.05;6.90;;;13.10;99.90;;;;;;4992348;28;20387;-74
2022/10/14 04:10:27;;;;;;;12.15;6.28;;;13.10;99.90;;;;;;4992316;28;20041;-75
2022/10/14 04:12:54;;;;;;;10.15;4.90;;;13.10;99.90;;;;;;5007095;28;20026;-74
2022/10/14 04:15:19;;;;;;;20.67;6.32;;;13.20;99.90;;;;;;4991790;28;20027;-74
2022/10/14 04:17:45;;;;;;;13.40;6.65;;;13.10;99.90;;;;;;4991897;28;20037;-74
2022/10/14 04:20:11;;;;;;;14.60;6.15;;;13.20;99.90;;;;;;4991989;28;20117;-74
2022/10/14 04:22:37;;;;;;;12.75;5.15;;;13.20;99.90;;;;;;4991733;28;20034;-74
2022/10/14 04:25:03;;;;;;;11.32;5.45;;;13.20;99.90;;;;;;4974491;28;20045;-74
2022/10/14 04:27:29;;;;;;;10.38;5.38;;;13.20;99.90;;;;;;4991792;28;20030;-74
2022/10/14 04:29:54;;;;;;;13.18;5.78;;;13.30;99.90;;;;;;4991897;28;20577;-74
2022/10/14 04:32:20;;;;;;;15.70;6.47;;;13.20;99.90;;;;;;4991699;28;20108;-74
2022/10/14 04:34:46;;;;;;;16.10;5.75;;;13.30;99.90;;;;;;4991731;28;20499;-74
2022/10/14 04:37:12;;;;;;;11.43;6.05;;;13.30;99.90;;;;;;4991144;28;20030;-74
2022/10/14 04:39:37;;;;;;;13.40;6.25;;;13.30;99.90;;;;;;4974084;28;20053;-74
2022/10/14 04:42:03;;;;;;;11.35;6.03;;;13.30;99.90;;;;;;4991792;28;20065;-75
2022/10/14 04:44:29;;;;;;;13.45;6.43;;;13.30;99.90;;;;;;4973834;28;20056;-73
2022/10/14 04:46:55;;;;;;;11.70;5.78;;;13.30;99.90;;;;;;4991653;28;20045;-73
2022/10/14 04:49:21;;;;;;;21.10;6.30;;;13.20;99.90;;;;;;4991285;28;20084;-73
2022/10/14 04:51:46;;;;;;;10.25;5.43;;;13.30;99.90;;;;;;4958258;28;20395;-73
2022/10/14 04:54:12;;;;;;;13.07;5.35;;;13.30;99.90;;;;;;4991131;28;20038;-73
2022/10/14 04:56:37;;;;;;;10.80;4.80;;;13.30;99.90;;;;;;4991572;28;20061;-74
2022/10/14 04:59:04;;;;;;;16.27;7.15;;;13.30;99.90;;;;;;4991810;28;20110;-73
2022/10/14 05:01:30;;;;;;;13.43;7.10;;;13.30;99.90;;;;;;4973682;28;20574;-73
2022/10/14 05:03:55;;;;;;;14.32;6.68;;;13.30;99.90;;;;;;4972986;28;20110;-73
2022/10/14 05:06:21;;;;;;;14.85;7.45;;;13.30;99.90;;;;;;4991021;28;20447;-73
2022/10/14 05:08:47;;;;;;;10.38;5.88;;;13.30;99.90;;;;;;4991211;28;20101;-73
2022/10/14 05:11:13;;;;;;;16.02;7.43;;;13.30;99.90;;;;;;4991135;28;20039;-73
2022/10/14 05:13:39;;;;;;;21.23;8.02;;;13.30;99.90;;;;;;4990895;28;20038;-73
2022/10/14 05:16:05;;;;;;;19.17;6.55;;;13.30;99.90;;;;;;4988085;28;20018;-73
2022/10/14 05:18:31;;;;;;;15.27;6.85;;;13.30;99.90;;;;;;5010810;28;20112;-74
2022/10/14 05:20:58;;;;;;;13.77;6.07;;;13.30;99.90;;;;;;4993204;28;20125;-73
2022/10/14 05:23:25;;;;;;;18.92;6.78;;;13.30;99.90;;;;;;4953797;28;20477;-73
2022/10/14 05:25:50;;;;;;;13.35;5.85;;;13.30;99.90;;;;;;4971696;28;20031;-73
2022/10/14 05:28:17;;;;;;;12.50;6.93;;;13.30;99.90;;;;;;4966419;28;20572;-78
2022/10/14 05:30:44;;;;;;;10.02;5.32;;;13.30;99.90;;;;;;4989819;28;20039;-78
2022/10/14 05:33:10;;;;;;;14.00;5.85;;;13.40;99.90;;;;;;4988888;28;20065;-75
2022/10/14 05:35:36;;;;;;;19.13;7.20;;;13.30;99.90;;;;;;4990463;28;20084;-75
2022/10/14 05:38:03;;;;;;;12.85;6.05;;;13.40;99.90;;;;;;4990486;28;20026;-76
2022/10/14 05:40:28;;;;;;;13.30;6.78;;;13.40;99.90;;;;;;4990408;28;20518;-75
2022/10/14 05:42:54;;;;;;;13.25;6.57;;;13.40;99.90;;;;;;4990143;28;20083;-73
2022/10/14 05:45:20;;;;;;;11.15;6.85;;;13.40;99.90;;;;;;4990737;28;20038;-74
2022/10/14 05:47:46;;;;;;;10.90;6.07;;;13.40;99.90;;;;;;4990956;28;20027;-75
2022/10/14 05:50:13;;;;;;;13.70;5.57;;;13.40;99.90;;;;;;4973324;28;20394;-75
2022/10/14 05:52:39;;;;;;;13.90;5.68;;;13.40;99.90;;;;;;4957369;28;20489;-75
2022/10/14 05:55:07;;;;;;;11.65;5.80;;;13.40;99.90;;;;;;4973281;28;20023;-75
2022/10/14 05:57:33;;;;;;;10.20;5.72;;;13.40;99.90;;;;;;4990871;28;20034;-75
2022/10/14 06:00:00;;;;;;;10.15;5.82;;;13.50;99.90;;;;;;4990501;28;20035;-74
2022/10/14 06:02:25;;;;;;;17.15;5.13;;;13.50;99.90;;;;;;4976100;28;20402;-76
2022/10/14 06:04:51;;;;;;;10.85;5.80;;;13.50;99.90;;;;;;4980963;28;20018;-76
2022/10/14 06:07:17;;;;;;;9.10;5.75;;;13.60;99.90;;;;;;4971613;28;20483;-76
2022/10/14 06:09:43;;;;;;;8.85;3.95;;;13.60;99.90;;;;;;4971357;28;20070;-74
2022/10/14 06:12:09;;;;;;;13.95;5.55;;;13.70;99.90;;;;;;4971545;28;20110;-76
2022/10/14 06:14:37;;;;;;;10.23;6.00;;;13.70;99.90;;;;;;4971305;28;20074;-75
2022/10/14 06:17:06;;;;;;;8.23;4.43;;;13.70;99.90;;;;;;4957865;28;20434;-74
2022/10/14 06:19:32;;;;;;;13.40;4.80;;;13.70;99.90;;;;;;4975139;28;20030;-74
2022/10/14 06:21:58;;;;;;;19.85;5.22;;;13.80;99.90;;;;;;4982884;28;20030;-74
2022/10/14 06:24:24;;;;;;;9.50;5.00;;;13.70;99.90;;;;;;4993800;28;20096;-75
2022/10/14 06:26:49;;;;;;;14.02;5.40;;;13.70;99.90;;;;;;4994212;28;20030;-75
2022/10/14 06:29:16;;;;;;;9.18;4.60;;;13.80;99.90;;;;;;4994206;28;20034;-75
2022/10/14 06:31:42;;;;;;;15.93;6.05;;;13.80;99.90;;;;;;4976590;28;20117;-75
2022/10/14 06:34:08;;;;;;;13.75;5.50;;;13.70;99.90;;;;;;4994217;28;20445;-76
2022/10/14 06:36:35;;;;;;;9.57;5.10;;;13.70;99.90;;;;;;4976784;28;20087;-75
2022/10/14 06:39:02;;;;;;;7.80;4.78;;;13.70;99.90;;;;;;4976835;28;20030;-75
2022/10/14 06:41:28;;;;;;;9.00;4.72;;;13.80;99.90;;;;;;4994002;28;20126;-76
2022/10/14 06:43:53;;;;;;;7.55;4.93;;;13.70;99.90;;;;;;4976027;28;20546;-74
2022/10/14 06:46:19;;;;;;;10.10;4.15;;;13.70;99.90;;;;;;4976456;28;20029;-74
2022/10/14 06:48:45;;;;;;;7.45;4.40;;;13.80;99.90;;;;;;4993897;28;20027;-74
2022/10/14 06:51:10;;;;;;;8.23;4.45;;;13.70;99.90;;;;;;4993822;28;20057;-73
2022/10/14 06:53:36;;;;;;;9.25;3.95;;;13.70;99.90;;;;;;4993586;28;20490;-74
2022/10/14 06:56:05;;;;;;;7.80;4.28;;;13.80;99.90;;;;;;4993639;28;20761;-73
2022/10/14 06:58:31;;;;;;;7.85;4.10;;;13.80;99.90;;;;;;4976242;28;20026;-74
2022/10/14 07:01:03;;;;;;;21.55;4.93;;;13.80;99.90;;;;;;4976399;28;20042;-74
2022/10/14 07:03:30;;;;;;;14.45;5.05;;;13.80;99.90;;;;;;4993370;28;20109;-74
2022/10/14 07:05:55;;;;;;;10.77;5.05;;;13.80;99.90;;;;;;4993621;28;20030;-75
2022/10/14 07:08:21;;;;;;;13.20;4.68;;;13.90;99.90;;;;;;4993732;28;20057;-76
2022/10/14 07:10:47;;;;;;;15.25;4.93;;;13.90;99.90;;;;;;4993101;28;20030;-76
2022/10/14 07:13:13;;;;;;;19.85;4.10;;;13.90;99.90;;;;;;4993231;28;20026;-76
2022/10/14 07:15:39;;;;;;;12.27;6.10;;;13.90;99.90;;;;;;4993590;28;20030;-75
2022/10/14 07:18:06;;;;;;;12.45;4.32;;;14.00;99.90;;;;;;4975890;28;20042;-75
2022/10/14 07:20:33;;;;;;;20.48;4.07;;;14.10;99.90;;;;;;4993521;28;20030;-75
2022/10/14 07:23:00;;;;;;;8.00;4.78;;;14.10;99.90;;;;;;4975698;28;20042;-76
2022/10/14 07:25:25;;;;;;;20.40;5.35;;;14.10;99.90;;;;;;4976028;28;20069;-76
2022/10/14 07:27:52;;;;;;;8.45;3.90;;;14.20;99.90;;;;;;4974852;28;20042;-76
2022/10/14 07:30:18;;;;;;;7.50;3.85;;;14.20;99.90;;;;;;4992885;28;20026;-76
2022/10/14 07:32:44;;;;;;;10.55;4.35;;;14.20;99.90;;;;;;4992756;28;20049;-75
2022/10/14 07:35:10;;;;;;;8.48;3.70;;;14.20;99.90;;;;;;4992913;28;20062;-75
2022/10/14 07:37:36;;;;;;;8.15;4.13;;;14.30;99.90;;;;;;4992944;28;20054;-76
2022/10/14 07:40:03;;;;;;;11.05;4.35;;;14.20;99.90;;;;;;4993387;28;20032;-76
2022/10/14 07:42:29;;;;;;;9.48;3.63;;;14.30;99.90;;;;;;4974989;28;20039;-75
2022/10/14 07:44:56;;;;;;;10.63;3.53;;;14.30;99.90;;;;;;4992868;28;20512;-77
2022/10/14 07:47:23;;;;;;;13.10;4.00;;;14.30;99.90;;;;;;4992783;28;20116;-74
2022/10/14 07:49:49;;;;;;;10.07;3.97;;;14.30;99.90;;;;;;4988342;28;20556;-74
2022/10/14 07:52:15;;;;;;;10.32;3.45;;;14.30;99.90;;;;;;4990123;28;20040;-75
2022/10/14 07:54:41;;;;;;;8.18;3.70;;;14.40;99.90;;;;;;4992053;28;20022;-75
2022/10/14 07:57:07;;;;;;;8.98;3.75;;;14.50;99.90;;;;;;4991686;28;20034;-75
2022/10/14 07:59:32;;;;;;;10.23;4.32;;;14.40;99.90;;;;;;4974525;28;20034;-75
2022/10/14 08:01:58;;;;;;;7.97;4.25;;;14.50;99.90;;;;;;4974580;28;20065;-75
2022/10/14 08:04:24;;;;;;;11.52;4.70;;;14.50;99.90;;;;;;4991462;28;20091;-75
2022/10/14 08:06:52;;;;;;;7.63;3.97;;;14.50;99.90;;;;;;4974731;28;20501;-75
2022/10/14 08:09:18;;;;;;;13.55;5.45;;;14.40;99.90;;;;;;4971261;28;20041;-75
2022/10/14 08:11:45;;;;;;;8.10;4.00;;;14.50;99.90;;;;;;4972570;28;20026;-76
2022/10/14 08:14:11;;;;;;;7.10;3.60;;;14.50;99.90;;;;;;4974333;28;20027;-75
2022/10/14 08:16:38;;;;;;;7.68;4.50;;;14.50;99.90;;;;;;4987498;23;20034;-70
2022/10/14 08:19:09;;;;;;;13.10;4.30;;;14.60;99.90;;;;;;4983813;28;20069;-70
2022/10/14 08:21:35;;;;;;;9.38;4.70;;;14.70;99.90;;;;;;4959288;28;20465;-70
2022/10/14 08:24:01;;;;;;;9.40;3.88;;;14.80;99.90;;;;;;4991388;28;20138;-71
2022/10/14 08:26:30;;;;;;;13.80;4.10;;;14.70;99.90;;;;;;4993042;28;20026;-70
2022/10/14 08:29:02;;;;;;;9.13;4.75;;;14.80;99.90;;;;;;4993708;28;20152;-70
2022/10/14 08:31:29;;;;;;;7.20;3.60;;;14.90;99.90;;;;;;5011454;28;20543;-70
2022/10/14 08:33:55;;;;;;;9.38;5.03;;;14.90;99.90;;;;;;5011135;28;20042;-71
2022/10/14 08:36:22;;;;;;;14.90;3.85;;;15.00;99.90;;;;;;4993848;28;20485;-71
2022/10/14 08:38:49;;;;;;;5.65;2.63;;;15.10;99.90;;;;;;5011278;28;20514;-72
2022/10/14 08:41:49;;;;;;;6.95;3.60;;;15.20;99.90;;;;;;5011159;28;20042;-72
2022/10/14 08:44:38;;;;;;;9.60;3.60;;;15.30;99.90;;;;;;5010594;28;20104;-72
2022/10/14 08:47:19;;;;;;;5.40;3.08;;;15.40;99.90;;;;;;5011007;28;20066;-72
2022/10/14 08:50:03;;;;;;;10.32;3.67;;;15.40;99.90;;;;;;4994073;28;20493;-72
2022/10/14 08:53:12;;;;;;;7.72;3.85;;;15.50;99.90;;;;;;5010841;28;20494;-72
2022/10/14 08:55:51;;;;;;;6.28;3.53;;;15.50;99.90;;;;;;5002642;28;20064;-72
2022/10/14 08:58:44;;;;;;;4.80;2.70;;;15.50;99.90;;;;;;4993800;28;20028;-72
2022/10/14 09:01:24;;;;;;;8.82;3.40;;;15.50;99.90;;;;;;4993918;28;20525;-72
2022/10/14 09:04:01;;;;;;;6.47;3.28;;;15.50;99.90;;;;;;5010818;28;20042;-72
2022/10/14 09:06:30;;;;;;;9.43;4.13;;;15.50;99.90;;;;;;5010849;28;20052;-72
2022/10/14 09:09:27;;;;;;;5.78;3.22;;;15.50;99.90;;;;;;4993533;28;20124;-72
2022/10/14 09:12:05;;;;;;;5.38;3.00;;;15.60;99.90;;;;;;4985428;28;20050;-72
2022/10/14 09:14:38;;;;;;;8.57;3.20;;;15.60;99.90;;;;;;5010316;28;20062;-72
2022/10/14 09:17:41;;;;;;;7.65;2.78;;;15.70;99.90;;;;;;4993304;28;20026;-72
2022/10/14 09:20:07;;;;;;;6.47;3.20;;;15.70;99.90;;;;;;4974031;28;20120;-71
2022/10/14 09:22:33;;;;;;;10.23;3.15;;;15.80;99.90;;;;;;5003499;28;20482;-71
2022/10/14 09:25:00;;;;;;;4.10;2.70;;;15.90;99.90;;;;;;4992722;28;20053;-72
2022/10/14 09:27:28;;;;;;;5.65;2.10;;;16.00;99.90;;;;;;5010525;28;20481;-72
2022/10/14 09:30:00;;;;;;;5.13;3.17;;;16.00;99.90;;;;;;4992654;28;20473;-71
2022/10/14 09:32:40;;;;;;;5.68;3.15;;;16.10;99.90;;;;;;4992966;28;20477;-71
2022/10/14 09:35:36;;;;;;;8.82;2.88;;;15.90;99.90;;;;;;5010262;28;20030;-71
2022/10/14 09:38:02;;;;;;;6.85;3.22;;;16.10;99.90;;;;;;4994790;28;20050;-71
2022/10/14 09:40:34;;;;;;;5.20;3.15;;;16.30;99.90;;;;;;5010472;28;20113;-71
2022/10/14 09:43:09;;;;;;;4.78;2.08;;;16.30;99.90;;;;;;4992920;28;20064;-72
2022/10/14 09:46:09;;;;;;;11.10;3.42;;;16.30;99.90;;;;;;5010082;28;20038;-72
2022/10/14 09:48:42;;;;;;;15.75;2.83;;;16.30;99.90;;;;;;4992762;28;20034;-72
2022/10/14 09:51:26;;;;;;;15.48;2.33;;;16.40;99.90;;;;;;4995198;28;20124;-72
2022/10/14 09:53:54;;;;;;;5.68;2.75;;;16.20;99.90;;;;;;4997176;28;20026;-72
2022/10/14 09:56:41;;;;;;;6.90;2.45;;;16.30;99.90;;;;;;4980560;28;20022;-72
2022/10/14 09:59:21;;;;;;;5.07;2.72;;;16.30;99.90;;;;;;4999482;28;20057;-72
2022/10/14 10:02:00;;;;;;;5.73;3.37;;;16.30;99.90;;;;;;5014092;28;20022;-71
2022/10/14 10:04:46;;;;;;;6.30;2.50;;;16.30;99.90;;;;;;4996320;28;20482;-72
2022/10/14 10:07:33;;;;;;;6.95;2.38;;;16.50;99.90;;;;;;4996637;28;20481;-72
2022/10/14 10:10:15;;;;;;;12.77;3.15;;;16.50;99.90;;;;;;4996165;28;20393;-72
2022/10/14 10:12:45;;;;;;;9.23;3.05;;;16.60;99.90;;;;;;4996033;28;20030;-72
2022/10/14 10:15:18;;;;;;;5.93;2.78;;;16.70;99.90;;;;;;5013867;28;20105;-72
2022/10/14 10:17:46;;;;;;;4.63;2.78;;;16.50;99.90;;;;;;5012856;28;20038;-72
2022/10/14 10:20:32;;;;;;;5.00;2.30;;;16.50;99.90;;;;;;5013679;28;20034;-72
2022/10/14 10:23:24;;;;;;;6.70;2.63;;;16.40;99.90;;;;;;5014037;28;20494;-72
2022/10/14 10:25:50;;;;;;;4.75;1.80;;;16.50;99.90;;;;;;5013638;28;20034;-72
2022/10/14 10:28:31;;;;;;;3.60;2.13;;;16.70;99.90;;;;;;4995979;28;20113;-72
2022/10/14 10:31:00;;;;;;;;;;;16.70;99.90;;;;;;4996979;28;20033;-72
2022/10/14 10:33:40;;;;;;;4.63;2.03;;;16.60;99.90;;;;;;5013223;28;19913;-71
2022/10/14 10:36:36;;;;;;;7.72;2.95;;;16.50;99.90;;;;;;4996854;28;20042;-72
2022/10/14 10:39:53;;;;;;;5.88;2.05;;;16.50;99.90;;;;;;5013458;28;20074;-71
2022/10/14 10:42:33;;;;;;;5.25;1.98;;;16.50;99.90;;;;;;5013184;28;20034;-71
2022/10/14 10:45:29;;;;;;;4.72;2.85;;;16.60;99.90;;;;;;4996909;28;20072;-72
2022/10/14 10:48:11;;;;;;;5.53;2.17;;;16.50;99.90;;;;;;5012844;28;20450;-72
2022/10/14 10:51:04;;;;;;;4.75;1.98;;;16.50;99.90;;;;;;4995669;28;20057;-72
2022/10/14 10:54:06;;;;;;;6.38;2.33;;;16.60;99.90;;;;;;5012977;28;20030;-71
2022/10/14 10:56:54;;;;;;;2.95;1.90;;;16.60;99.90;;;;;;5012925;28;20033;-72
2022/10/14 10:59:58;;;;;;;9.55;2.17;;;16.50;99.90;;;;;;4995962;28;20386;-71
2022/10/14 11:03:09;;;;;;;4.93;1.85;;;16.30;99.90;;;;;;5011698;28;20029;-72
2022/10/14 11:06:04;;;;;;;10.25;2.53;;;16.10;99.90;;;;;;4995359;28;20038;-72
2022/10/14 11:12:09;;;;;;;4.53;2.17;;;16.00;99.90;;;;;;4998636;28;20080;-72
2022/10/14 11:15:11;;;;;;;3.42;1.63;;;16.10;99.90;;;;;;4997248;28;20030;-71
2022/10/14 11:17:45;;;;;;;6.70;2.05;;;16.10;99.90;;;;;;5011767;28;20040;-71
2022/10/14 11:20:35;;;;;;;3.78;2.08;;;16.20;99.90;;;;;;5012583;28;20029;-72
2022/10/14 11:23:22;;;;;;;3.10;2.10;;;16.10;99.90;;;;;;4994788;28;20080;-72
2022/10/14 11:26:03;;;;;;;3.72;1.90;;;16.10;99.90;;;;;;5012641;28;20037;-72
2022/10/14 11:28:50;;;;;;;3.05;1.85;;;16.00;99.90;;;;;;4994554;28;20065;-71
2022/10/14 11:32:13;;;;;;;7.78;2.53;;;16.20;99.90;;;;;;5012259;28;20052;-72
2022/10/14 11:35:04;;;;;;;8.70;2.63;;;16.00;99.90;;;;;;5007293;28;20416;-71
2022/10/14 11:38:09;;;;;;;7.40;2.35;;;16.00;99.90;;;;;;5012197;28;20034;-72
2022/10/14 11:40:56;;;;;;;6.13;2.45;;;16.00;99.90;;;;;;5012204;28;20029;-71
2022/10/14 11:43:42;;;;;;;4.03;1.75;;;15.90;99.90;;;;;;5012216;28;20062;-72
2022/10/14 11:46:12;;;;;;;4.35;2.22;;;16.00;99.90;;;;;;4994934;28;20076;-71
2022/10/14 11:48:54;;;;;;;4.80;2.00;;;16.00;99.90;;;;;;4994121;28;20029;-72
2022/10/14 11:51:47;;;;;;;3.95;1.63;;;16.00;99.90;;;;;;4996133;28;20041;-72
2022/10/14 11:54:24;;;;;;;6.85;2.88;;;16.00;99.90;;;;;;4995797;28;20120;-71
2022/10/14 11:57:21;;;;;;;6.22;3.00;;;16.00;99.90;;;;;;4995364;28;20406;-72
2022/10/14 12:00:11;;;;;;;5.38;2.90;;;15.90;99.90;;;;;;4995529;28;20469;-72
2022/10/14 12:02:54;;;;;;;7.90;2.20;;;15.90;99.90;;;;;;4998648;28;20072;-71
2022/10/14 12:05:49;;;;;;;5.03;1.90;;;16.00;99.90;;;;;;4994952;28;20034;-72
2022/10/14 12:08:31;;;;;;;16.65;2.47;;;15.90;99.90;;;;;;4991555;28;20494;-72
2022/10/14 12:11:15;;;;;;;4.35;1.90;;;16.00;99.90;;;;;;5011453;28;20117;-72
2022/10/14 12:13:51;;;;;;;2.50;1.63;;;16.10;99.90;;;;;;4994621;28;20045;-71
2022/10/14 12:16:22;;;;;;;3.80;2.20;;;16.20;99.90;;;;;;5008740;28;20442;-72
2022/10/14 12:18:54;;;;;;;3.42;1.65;;;16.30;99.90;;;;;;4989622;28;20486;-71
2022/10/14 12:21:31;;;;;;;;;;;16.40;99.90;;;;;;4978171;28;20117;-71
2022/10/14 12:24:07;;;;;;;3.35;2.00;;;16.40;99.90;;;;;;5011392;28;19915;-70
2022/10/14 12:27:00;;;;;;;3.70;2.30;;;16.40;99.90;;;;;;4994212;28;20152;-70
2022/10/14 12:29:50;;;;;;;9.27;2.35;;;16.40;99.90;;;;;;4994221;28;20038;-70
2022/10/14 12:32:20;;;;;;;5.97;1.83;;;16.50;99.90;;;;;;4995558;28;20075;-72
2022/10/14 12:34:49;;;;;;;3.42;1.67;;;16.40;99.90;;;;;;5030761;28;20036;-73
2022/10/14 12:37:23;;;;;;;6.60;3.00;;;16.40;99.90;;;;;;4996734;28;20033;-75
2022/10/14 12:40:06;;;;;;;4.22;2.08;;;16.40;99.90;;;;;;5030524;28;20499;-76
2022/10/14 12:42:37;;;;;;;3.65;2.17;;;16.30;99.90;;;;;;5014457;28;20037;-75
2022/10/14 12:45:28;;;;;;;3.15;2.03;;;16.40;99.90;;;;;;5017187;28;20154;-77
2022/10/14 12:48:21;;;;;;;3.10;1.33;;;16.30;99.90;;;;;;5013112;28;20071;-75
2022/10/14 12:50:50;;;;;;;3.67;1.92;;;16.40;99.90;;;;;;5013996;28;20555;-74
2022/10/14 12:53:31;;;;;;;7.43;2.13;;;16.40;99.90;;;;;;5011771;28;20030;-72
2022/10/14 12:56:00;;;;;;;4.05;2.08;;;16.40;99.90;;;;;;5010355;28;20045;-73
2022/10/14 12:58:39;;;;;;;8.52;2.10;;;16.40;99.90;;;;;;4992969;28;20040;-73
2022/10/14 13:01:18;;;;;;;4.18;2.00;;;16.30;99.90;;;;;;5010810;28;20040;-74
2022/10/14 13:03:53;;;;;;;3.95;2.05;;;16.40;99.90;;;;;;4993072;28;20559;-74
2022/10/14 13:06:37;;;;;;;6.07;1.98;;;16.40;99.90;;;;;;5010227;28;20534;-74
2022/10/14 13:09:12;;;;;;;6.15;2.50;;;16.70;99.90;;;;;;5010551;28;20034;-74
2022/10/14 13:11:43;;;;;;;6.88;2.25;;;16.80;99.90;;;;;;5009939;28;20072;-75
2022/10/14 13:14:25;;;;;;;4.85;1.92;;;16.90;99.90;;;;;;5000105;28;20533;-77
2022/10/14 13:16:57;;;;;;;4.93;2.30;;;16.90;99.90;;;;;;4994649;28;20045;-73
2022/10/14 13:19:32;;;;;;;3.88;2.83;;;16.90;99.90;;;;;;4992421;28;20026;-75